Time;durP1;ratioP1;P1;durP2;ratioP2;P2;SDS_P1;SDS_P2;PMS_P1;PMS_P2;Temp;Humidity;BMP_temperature;BMP_pressure;BME280_temperature;BME280_humidity;BME280_pressure;Samples;Min_cycle;Max_cycle;Signal;HPM_P1;HPM_P2
2021/05/05 00:01:21;;;;;;;1999.90;999.90;;;;;;;10.65;63.42;99376.22;15370122;28;20456;-59
2021/05/05 00:08:53;;;;;;;1999.90;999.90;;;;;;;10.67;63.75;99376.66;15370411;28;20416;-61
2021/05/05 00:16:25;;;;;;;1999.90;999.90;;;;;;;10.76;63.03;99373.66;15368753;28;20075;-59
2021/05/05 00:23:57;;;;;;;1999.90;999.90;;;;;;;10.52;63.44;99371.13;15352970;29;20123;-60
2021/05/05 00:31:30;;;;;;;1999.90;999.90;;;;;;;10.37;64.07;99361.66;15368064;28;20123;-61
2021/05/05 00:39:03;;;;;;;1999.90;999.90;;;;;;;10.25;64.33;99365.38;15368993;28;20452;-59
2021/05/05 00:46:39;;;;;;;1999.90;999.90;;;;;;;10.10;64.89;99364.19;15367933;28;20312;-58
2021/05/05 00:54:31;;;;;;;1999.90;999.90;;;;;;;10.21;64.23;99360.84;15366827;28;20092;-61
2021/05/05 01:02:24;;;;;;;1999.90;999.90;;;;;;;10.21;64.18;99361.66;15370182;29;20102;-60
2021/05/05 01:09:55;;;;;;;1999.90;999.90;;;;;;;10.05;64.72;99363.69;15366641;28;20063;-61
2021/05/05 01:17:29;;;;;;;1999.90;999.90;;;;;;;10.18;64.09;99356.00;15366639;28;20047;-60
2021/05/05 01:25:02;;;;;;;1999.90;999.90;;;;;;;10.23;64.15;99356.56;15365993;28;20156;-60
2021/05/05 01:32:34;;;;;;;1999.90;999.90;;;;;;;10.04;64.14;99340.59;15366993;29;20298;-61
2021/05/05 01:40:11;;;;;;;1999.90;999.90;;;;;;;10.21;63.64;99342.16;15369628;28;20087;-61
2021/05/05 01:47:43;;;;;;;1999.90;999.90;;;;;;;10.12;64.09;99338.78;15377693;28;20055;-61
2021/05/05 01:55:16;;;;;;;1999.90;999.90;;;;;;;10.12;63.93;99338.78;15377797;28;20134;-60
2021/05/05 02:02:49;;;;;;;1999.90;999.90;;;;;;;9.93;64.45;99339.53;15376754;29;20055;-60
2021/05/05 02:10:29;;;;;;;1999.90;999.90;;;;;;;10.09;63.93;99336.69;15359445;29;20051;-61
2021/05/05 02:18:02;;;;;;;1999.90;999.90;;;;;;;10.08;63.98;99333.09;15376130;28;20047;-59
2021/05/05 02:25:35;;;;;;;1999.90;999.90;;;;;;;10.05;64.41;99336.63;15375129;28;20047;-60
2021/05/05 02:33:13;;;;;;;1999.90;999.90;;;;;;;9.97;64.35;99325.66;15359024;29;20051;-60
2021/05/05 02:40:47;;;;;;;1999.90;999.90;;;;;;;9.90;64.41;99325.50;15358363;29;20444;-60
2021/05/05 02:48:18;;;;;;;1999.90;999.90;;;;;;;9.93;64.31;99316.44;15374259;28;20113;-61
2021/05/05 02:55:51;;;;;;;1999.90;999.90;;;;;;;9.82;64.17;99313.41;15340423;28;20050;-61
2021/05/05 03:03:23;;;;;;;1999.90;999.90;;;;;;;9.71;64.52;99313.13;15374100;29;20075;-59
2021/05/05 03:10:56;;;;;;;1999.90;999.90;;;;;;;9.68;64.74;99301.91;15374146;28;20054;-61
2021/05/05 03:18:27;;;;;;;1999.90;999.90;;;;;;;9.54;64.60;99307.94;15355817;28;20051;-61
2021/05/05 03:25:59;;;;;;;1999.90;999.90;;;;;;;9.46;64.76;99309.72;15397879;23;20071;-56
2021/05/05 03:33:31;;;;;;;1999.90;999.90;;;;;;;9.56;63.97;99311.16;15432260;28;20074;-57
2021/05/05 03:41:03;;;;;;;1999.90;999.90;;;;;;;9.58;63.59;99316.38;15428985;28;20058;-59
2021/05/05 03:48:35;;;;;;;1999.90;999.90;;;;;;;9.79;63.04;99317.69;15491357;28;20039;-59
2021/05/05 03:56:08;;;;;;;1999.90;999.90;;;;;;;9.94;61.92;99313.28;15491000;28;20469;-60
2021/05/05 04:03:40;;;;;;;1999.90;999.90;;;;;;;9.94;61.31;99315.25;15489518;28;20139;-60
2021/05/05 04:11:12;;;;;;;1999.90;999.90;;;;;;;9.86;60.97;99307.91;15473025;28;20064;-59
2021/05/05 04:18:44;;;;;;;1999.90;999.90;;;;;;;10.36;59.11;99309.84;15471976;28;20152;-59
2021/05/05 04:26:17;;;;;;;1999.90;999.90;;;;;;;10.30;58.07;99314.09;15471639;28;20078;-60
2021/05/05 04:33:48;;;;;;;1999.90;999.90;;;;;;;10.25;57.96;99322.75;15472450;28;20481;-60
2021/05/05 04:41:21;;;;;;;1999.90;999.90;;;;;;;10.39;57.39;99326.66;15471730;28;20543;-61
2021/05/05 04:48:52;;;;;;;1999.90;999.90;;;;;;;10.41;56.47;99341.03;15472501;28;20054;-60
2021/05/05 04:56:25;;;;;;;1999.90;999.90;;;;;;;10.42;56.97;99336.28;15489006;28;20057;-61
2021/05/05 05:03:56;;;;;;;1999.90;999.90;;;;;;;10.34;56.83;99331.72;15471939;28;20042;-58
2021/05/05 05:11:29;;;;;;;1999.90;999.90;;;;;;;10.51;56.31;99345.22;15489519;28;20576;-60
2021/05/05 05:19:00;;;;;;;1999.90;999.90;;;;;;;10.50;56.43;99351.97;15468620;28;20097;-58
2021/05/05 05:26:33;;;;;;;1999.90;999.90;;;;;;;10.73;55.54;99340.91;15491153;28;20509;-60
2021/05/05 05:34:04;;;;;;;1999.90;999.90;;;;;;;11.19;54.37;99346.59;15476696;28;20121;-60
2021/05/05 05:41:38;;;;;;;1999.90;999.90;;;;;;;10.79;55.24;99349.81;15481500;28;20051;-58
2021/05/05 05:49:11;;;;;;;1999.90;999.90;;;;;;;10.85;54.39;99353.91;15492639;28;20121;-60
2021/05/05 05:56:43;;;;;;;1999.90;999.90;;;;;;;11.43;53.92;99365.78;15485447;28;20045;-60
2021/05/05 06:04:16;;;;;;;1999.90;999.90;;;;;;;12.03;52.09;99352.06;15481312;28;20475;-60
2021/05/05 06:11:49;;;;;;;1999.90;999.90;;;;;;;11.40;52.66;99372.13;15499819;28;20303;-60
2021/05/05 06:19:20;;;;;;;1999.90;999.90;;;;;;;11.24;51.94;99363.84;15498323;28;20185;-57
2021/05/05 06:26:52;;;;;;;1999.90;999.90;;;;;;;12.02;50.26;99364.44;15478183;28;20077;-59
2021/05/05 06:34:24;;;;;;;1999.90;999.90;;;;;;;13.55;47.05;99365.63;15497593;28;20049;-57
2021/05/05 06:41:57;;;;;;;1999.90;999.90;;;;;;;14.78;44.42;99366.09;15496472;28;20482;-57
2021/05/05 06:49:32;;;;;;;1999.90;999.90;;;;;;;12.59;48.03;99370.06;15495948;28;20583;-57
2021/05/05 06:57:07;;;;;;;1999.90;999.90;;;;;;;11.68;50.73;99379.41;15408642;28;20074;-59
2021/05/05 07:04:38;;;;;;;1999.90;999.90;;;;;;;11.65;50.97;99383.75;15428255;28;20047;-62
2021/05/05 07:12:11;;;;;;;1999.90;999.90;;;;;;;11.54;51.16;99375.16;15438830;28;20050;-62
2021/05/05 07:19:42;;;;;;;1999.90;999.90;;;;;;;13.53;47.46;99380.00;15416696;28;20615;-62
2021/05/05 07:27:16;;;;;;;1999.90;999.90;;;;;;;12.95;48.59;99386.13;15378963;28;20047;-61
2021/05/05 07:34:48;;;;;;;1999.90;999.90;;;;;;;12.17;49.33;99376.63;15428181;28;20500;-63
2021/05/05 07:42:51;;;;;;;1999.90;999.90;;;;;;;12.07;49.94;99396.84;15396740;28;20170;-61
2021/05/05 07:50:22;;;;;;;1999.90;999.90;;;;;;;12.46;49.75;99396.66;15396953;28;20507;-54
2021/05/05 07:57:54;;;;;;;1999.90;999.90;;;;;;;13.51;46.71;99395.59;15393382;28;20057;-57
2021/05/05 08:05:26;;;;;;;1999.90;999.90;;;;;;;13.66;46.44;99397.34;15398185;28;20039;-57
2021/05/05 08:12:58;;;;;;;1999.90;999.90;;;;;;;13.93;45.65;99400.00;15429959;28;20054;-56
2021/05/05 08:20:31;;;;;;;1999.90;999.90;;;;;;;12.63;50.50;99410.09;15429131;28;20057;-57
2021/05/05 08:28:03;;;;;;;1999.90;999.90;;;;;;;15.10;46.22;99408.38;15382702;28;20074;-57
2021/05/05 08:35:35;;;;;;;1999.90;999.90;;;;;;;15.40;43.07;99394.03;15336110;29;20147;-58
2021/05/05 08:43:08;;;;;;;1999.90;999.90;;;;;;;15.21;40.32;99417.66;15351908;29;20044;-55
2021/05/05 08:50:42;;;;;;;1999.90;999.90;;;;;;;16.30;39.96;99421.09;15352961;28;20049;-54
2021/05/05 08:58:14;;;;;;;1999.90;999.90;;;;;;;15.32;40.22;99421.34;15384667;28;20126;-55
2021/05/05 09:05:49;;;;;;;1999.90;999.90;;;;;;;14.36;41.16;99420.75;15368759;29;20047;-54
2021/05/05 09:13:47;;;;;;;1999.90;999.90;;;;;;;15.92;40.08;99425.50;15369529;29;20047;-57
2021/05/05 09:21:27;;;;;;;1999.90;999.90;;;;;;;16.79;38.61;99411.81;15337040;29;20050;-55
2021/05/05 09:29:00;;;;;;;1999.90;999.90;;;;;;;15.00;41.98;99413.56;15352822;29;20051;-54
2021/05/05 09:36:31;;;;;;;1999.90;999.90;;;;;;;14.68;43.07;99421.00;15381472;28;20066;-55
2021/05/05 09:44:08;;;;;;;1999.90;999.90;;;;;;;14.84;42.86;99434.75;15427800;28;20200;-56
2021/05/05 09:51:47;;;;;;;1999.90;999.90;;;;;;;13.79;45.75;99440.72;15382493;28;20432;-57
2021/05/05 09:59:20;;;;;;;1999.90;999.90;;;;;;;13.44;46.02;99415.94;15407608;28;20423;-59
2021/05/05 10:06:57;;;;;;;1999.90;999.90;;;;;;;14.62;44.76;99412.16;15422467;28;20146;-55
2021/05/05 10:14:29;;;;;;;1999.90;999.90;;;;;;;15.42;40.89;99406.47;15431590;28;20047;-55
2021/05/05 10:22:03;;;;;;;1999.90;999.90;;;;;;;14.95;41.97;99413.94;15416727;28;20051;-55
2021/05/05 10:29:37;;;;;;;1999.90;999.90;;;;;;;13.08;47.37;99453.88;15399846;28;20066;-54
2021/05/05 10:37:09;;;;;;;1999.90;999.90;;;;;;;16.25;40.94;99463.69;15434873;28;20419;-56
2021/05/05 10:44:44;;;;;;;1999.90;999.90;;;;;;;17.43;38.11;99453.03;15417807;28;20051;-57
2021/05/05 10:52:15;;;;;;;1999.90;999.90;;;;;;;18.38;36.49;99448.81;15419155;28;20042;-53
2021/05/05 11:00:10;;;;;;;1999.90;999.90;;;;;;;18.17;35.48;99435.66;15441573;28;20047;-57
2021/05/05 11:07:49;;;;;;;1999.90;999.90;;;;;;;16.81;37.27;99448.00;15401391;28;20042;-56
2021/05/05 11:15:55;;;;;;;1999.90;999.90;;;;;;;15.70;36.32;99444.34;15432459;28;20492;-55
2021/05/05 11:23:43;;;;;;;1999.90;999.90;;;;;;;17.52;34.20;99459.03;15410316;28;20105;-52
2021/05/05 11:31:15;;;;;;;1999.90;999.90;;;;;;;17.34;33.88;99456.28;15418225;28;20146;-55
2021/05/05 11:38:47;;;;;;;1999.90;999.90;;;;;;;16.40;35.02;99462.50;15418310;28;20051;-62
2021/05/05 11:46:22;;;;;;;1999.90;999.90;;;;;;;18.48;31.85;99469.69;15437840;28;20412;-56
2021/05/05 11:53:54;;;;;;;1999.90;999.90;;;;;;;17.96;32.20;99458.41;15437561;28;20102;-56
2021/05/05 12:01:34;;;;;;;1999.90;999.90;;;;;;;20.53;30.71;99461.91;15418328;28;20055;-57
2021/05/05 12:09:20;;;;;;;1999.90;999.90;;;;;;;17.20;34.31;99473.25;15401898;28;20055;-54
2021/05/05 12:16:56;;;;;;;1999.90;999.90;;;;;;;18.74;32.84;99486.03;15416279;28;20054;-55
2021/05/05 12:24:27;;;;;;;1999.90;999.90;;;;;;;16.51;35.86;99494.28;15413600;28;20039;-58
2021/05/05 12:32:00;;;;;;;1999.90;999.90;;;;;;;15.70;35.28;99512.63;15432806;28;20070;-56
2021/05/05 12:39:32;;;;;;;1999.90;999.90;;;;;;;16.86;34.70;99503.91;15414461;28;20058;-54
2021/05/05 12:47:14;;;;;;;1999.90;999.90;;;;;;;15.55;37.61;99508.94;15398466;28;20055;-54
2021/05/05 12:54:45;;;;;;;1999.90;999.90;;;;;;;15.17;39.25;99512.38;15414808;28;20043;-56
2021/05/05 13:02:21;;;;;;;1999.90;999.90;;;;;;;15.14;42.19;99547.69;15432138;28;20144;-59
2021/05/05 13:10:08;;;;;;;1999.90;999.90;;;;;;;15.67;40.39;99563.25;15413443;28;20058;-59
2021/05/05 13:18:05;;;;;;;1999.90;999.90;;;;;;;18.77;33.08;99545.75;15412951;28;20091;-60
2021/05/05 13:33:42;;;;;;;1999.90;999.90;;;;;;;16.55;39.70;99548.56;15411590;28;20061;-59
2021/05/05 13:41:14;;;;;;;1999.90;999.90;;;;;;;15.65;38.96;99572.06;15423722;28;20641;-60
2021/05/05 13:48:48;;;;;;;1999.90;999.90;;;;;;;15.95;38.46;99579.44;15439271;28;20504;-59
2021/05/05 13:56:21;;;;;;;1999.90;999.90;;;;;;;14.91;39.50;99564.00;15421834;28;20443;-57
2021/05/05 14:03:53;;;;;;;1999.90;999.90;;;;;;;15.38;38.03;99554.63;15439296;28;20043;-58
2021/05/05 14:11:25;;;;;;;1999.90;999.90;;;;;;;15.42;35.87;99566.69;15438854;28;20054;-56
2021/05/05 14:18:58;;;;;;;1999.90;999.90;;;;;;;15.42;34.94;99563.88;15420740;28;20097;-59
2021/05/05 14:26:29;;;;;;;1999.90;999.90;;;;;;;15.12;36.28;99588.63;15420064;28;20094;-60
2021/05/05 14:34:02;;;;;;;1999.90;999.90;;;;;;;14.92;35.72;99585.25;15420515;28;20051;-59
2021/05/05 14:41:34;;;;;;;1999.90;999.90;;;;;;;15.14;35.81;99574.97;15420241;28;20047;-57
2021/05/05 14:49:09;;;;;;;1999.90;999.90;;;;;;;14.71;36.37;99599.94;15404283;28;20583;-61
2021/05/05 14:56:40;;;;;;;1999.90;999.90;;;;;;;14.86;36.55;99576.38;15439297;28;20122;-56
2021/05/05 15:04:13;;;;;;;1999.90;999.90;;;;;;;14.53;36.94;99576.50;15418270;28;20319;-60
2021/05/05 15:20:23;;;;;;;1999.90;999.90;;;;;;;11.75;54.41;99637.41;15417858;28;20082;-59
2021/05/05 15:28:07;;;;;;;1999.90;999.90;;;;;;;12.29;49.59;99633.72;15422112;23;20138;-61
2021/05/05 15:35:39;;;;;;;1999.90;999.90;;;;;;;12.89;47.47;99633.19;15384633;28;20548;-61
2021/05/05 15:43:48;;;;;;;1999.90;999.90;;;;;;;13.32;46.08;99625.50;15377636;29;20534;-63
2021/05/05 15:51:21;;;;;;;1999.90;999.90;;;;;;;13.04;43.83;99643.47;15378780;28;20051;-61
2021/05/05 15:58:56;;;;;;;1999.90;999.90;;;;;;;13.46;42.99;99628.53;15388708;28;20063;-62
2021/05/05 16:14:31;;;;;;;1999.90;999.90;;;;;;;13.68;43.70;99633.22;15382623;29;20087;-62
2021/05/05 16:22:07;;;;;;;1999.90;999.90;;;;;;;12.77;45.29;99720.97;15385400;28;20477;-64
2021/05/05 16:29:50;;;;;;;1999.90;999.90;;;;;;;9.74;63.12;99774.81;15356225;28;20051;-61
2021/05/05 16:45:35;;;;;;;1999.90;999.90;;;;;;;9.22;68.47;99792.22;15367953;28;20051;-63
2021/05/05 16:53:31;;;;;;;1999.90;999.90;;;;;;;9.30;68.59;99776.59;15352714;29;20495;-61
2021/05/05 17:01:19;;;;;;;1999.90;999.90;;;;;;;9.18;68.12;99766.25;15357022;29;20122;-60
2021/05/05 17:09:03;;;;;;;1999.90;999.90;;;;;;;9.09;66.67;99736.91;15324482;29;20131;-62
2021/05/05 17:16:35;;;;;;;1999.90;999.90;;;;;;;9.88;62.47;99741.00;15326829;28;20496;-60
2021/05/05 17:24:17;;;;;;;1999.90;999.90;;;;;;;9.84;62.02;99768.75;15372571;29;20057;-63
2021/05/05 18:11:13;;;;;;;1999.90;999.90;;;;;;;9.34;63.66;99832.38;15312620;29;20052;-60
2021/05/05 18:18:47;;;;;;;1999.90;999.90;;;;;;;9.26;63.23;99843.25;15349029;28;20043;-63
2021/05/05 18:26:31;;;;;;;;;;;;;;;9.30;63.17;99859.28;15380700;28;20122;-60
2021/05/05 18:34:03;;;;;;;1999.90;999.90;;;;;;;8.88;64.66;99884.44;15303318;29;20051;-61
2021/05/05 18:41:47;;;;;;;1999.90;999.90;;;;;;;9.07;63.40;99890.31;15304780;29;20469;-61
2021/05/05 19:13:08;;;;;;;1999.90;999.90;;;;;;;8.88;61.89;99926.16;15312276;29;20083;-61
2021/05/05 19:21:16;;;;;;;1999.90;999.90;;;;;;;8.92;61.93;99933.47;15302688;29;20043;-59
2021/05/05 20:24:05;;;;;;;1999.90;999.90;;;;;;;8.11;63.71;100012.50;15315616;29;20639;-61
2021/05/05 20:39:56;;;;;;;1999.90;999.90;;;;;;;8.46;62.99;100025.44;15360296;28;20150;-62
2021/05/05 21:11:31;;;;;;;1999.90;999.90;;;;;;;8.41;63.17;100051.47;15369065;28;20053;-62
2021/05/05 21:27:28;;;;;;;1999.90;999.90;;;;;;;8.15;62.73;100078.53;15348905;23;20444;-59
2021/05/05 23:09:33;;;;;;;1999.90;999.90;;;;;;;8.15;56.05;100131.34;15337627;28;20357;-61
2021/05/05 23:56:25;;;;;;;1999.90;999.90;;;;;;;7.81;57.23;100144.13;15294096;29;20044;-61
